createdAt,value
2023-01-19T00:01:37.690Z,10.98
2023-01-19T00:04:04.682Z,8.50
2023-01-19T00:06:34.911Z,6.55
2023-01-19T00:09:03.603Z,10.88
2023-01-19T00:11:30.578Z,10.23
2023-01-19T00:13:58.849Z,12.73
2023-01-19T00:16:29.074Z,10.05
2023-01-19T00:18:56.005Z,15.82
2023-01-19T00:21:22.980Z,11.35
2023-01-19T00:23:52.672Z,12.10
2023-01-19T00:26:22.371Z,10.25
2023-01-19T00:28:50.306Z,11.48
2023-01-19T00:31:17.259Z,12.60
2023-01-19T00:33:44.076Z,10.15
2023-01-19T00:36:10.920Z,9.00
2023-01-19T00:38:39.058Z,10.48
2023-01-19T00:41:06.214Z,10.15
2023-01-19T00:43:34.617Z,10.85
2023-01-19T00:46:01.447Z,10.82
2023-01-19T00:48:28.418Z,11.02
2023-01-19T00:50:55.401Z,10.05
2023-01-19T00:53:22.307Z,10.38
2023-01-19T00:55:55.133Z,11.15
2023-01-19T00:58:22.900Z,9.60
2023-01-19T01:01:03.721Z,11.40
2023-01-19T01:03:30.784Z,11.27
2023-01-19T01:05:57.572Z,10.52
2023-01-19T01:08:24.725Z,11.27
2023-01-19T01:10:52.079Z,10.13
2023-01-19T01:13:21.458Z,10.73
2023-01-19T01:15:53.128Z,11.35
2023-01-19T01:18:20.624Z,10.77
2023-01-19T01:20:47.691Z,11.40
2023-01-19T01:23:14.728Z,11.40
2023-01-19T01:25:42.589Z,10.05
2023-01-19T01:28:10.643Z,11.57
2023-01-19T01:30:41.248Z,8.65
2023-01-19T01:33:12.016Z,8.38
2023-01-19T01:35:38.830Z,8.50
2023-01-19T01:38:05.824Z,8.10
2023-01-19T01:40:32.651Z,9.27
2023-01-19T01:42:59.807Z,11.63
2023-01-19T01:45:31.581Z,8.90
2023-01-19T01:48:03.332Z,8.27
2023-01-19T01:50:33.889Z,8.48
2023-01-19T01:53:06.974Z,11.23
2023-01-19T01:55:38.135Z,8.88
2023-01-19T01:58:07.210Z,9.07
2023-01-19T02:00:54.043Z,8.32
2023-01-19T02:03:24.274Z,11.18
2023-01-19T02:05:57.587Z,9.07
2023-01-19T02:08:49.384Z,9.32
2023-01-19T02:11:35.578Z,8.65
2023-01-19T02:14:04.581Z,9.65
2023-01-19T02:16:31.798Z,9.32
2023-01-19T02:18:58.779Z,10.05
2023-01-19T02:21:33.742Z,9.27
2023-01-19T02:24:09.144Z,8.07
2023-01-19T02:26:39.422Z,10.55
2023-01-19T02:29:08.905Z,7.90
2023-01-19T02:31:37.711Z,8.02
2023-01-19T02:34:06.098Z,8.63
2023-01-19T02:36:38.445Z,10.90
2023-01-19T02:39:08.664Z,9.18
2023-01-19T02:41:41.565Z,6.70
2023-01-19T02:44:10.134Z,7.05
2023-01-19T02:46:38.382Z,8.18
2023-01-19T02:49:05.207Z,6.45
2023-01-19T02:51:32.266Z,8.75
2023-01-19T02:54:17.614Z,6.80
2023-01-19T02:56:57.614Z,7.40
2023-01-19T02:59:37.289Z,6.50
2023-01-19T03:02:17.843Z,7.03
2023-01-19T03:05:04.946Z,6.00
2023-01-19T03:07:43.785Z,6.43
2023-01-19T03:10:26.821Z,5.43
2023-01-19T03:13:01.892Z,4.60
2023-01-19T03:15:36.092Z,4.60
2023-01-19T03:18:09.527Z,3.97
2023-01-19T03:20:37.920Z,4.35
2023-01-19T03:23:08.973Z,4.53
2023-01-19T03:25:41.144Z,4.38
2023-01-19T03:28:08.163Z,4.05
2023-01-19T03:30:39.604Z,4.00
2023-01-19T03:33:10.871Z,4.47
2023-01-19T03:35:43.371Z,3.28
2023-01-19T03:38:16.693Z,3.45
2023-01-19T03:40:47.654Z,3.40
2023-01-19T03:43:16.660Z,3.05
2023-01-19T03:45:44.328Z,2.92
2023-01-19T03:48:11.251Z,3.03
2023-01-19T03:50:38.272Z,3.13
2023-01-19T03:53:10.023Z,3.17
2023-01-19T03:55:39.252Z,2.72
2023-01-19T03:58:07.574Z,2.28
2023-01-19T04:00:34.689Z,2.50
2023-01-19T04:03:01.935Z,2.53
2023-01-19T04:05:29.514Z,1.20
2023-01-19T04:07:56.574Z,1.50
2023-01-19T04:10:24.166Z,1.13
2023-01-19T04:12:57.441Z,0.90
2023-01-19T04:15:25.967Z,0.73
2023-01-19T04:17:53.001Z,0.80
2023-01-19T04:20:21.088Z,1.23
2023-01-19T04:22:47.905Z,0.50
2023-01-19T04:25:14.855Z,0.30
2023-01-19T04:27:41.843Z,0.75
2023-01-19T04:30:10.226Z,1.15
2023-01-19T04:32:38.440Z,2.55
2023-01-19T04:35:06.008Z,1.05
2023-01-19T04:37:32.803Z,1.05
2023-01-19T04:39:59.519Z,1.70
2023-01-19T04:42:27.628Z,0.95
2023-01-19T04:44:54.411Z,1.88
2023-01-19T04:47:21.171Z,1.23
2023-01-19T04:49:49.392Z,0.82
2023-01-19T04:52:16.220Z,1.77
2023-01-19T04:54:42.967Z,0.80
2023-01-19T04:57:09.797Z,0.82
2023-01-19T04:59:36.510Z,1.10
2023-01-19T05:02:03.380Z,0.63
2023-01-19T05:04:30.152Z,1.08
2023-01-19T05:06:58.416Z,0.60
2023-01-19T05:09:26.162Z,1.13
2023-01-19T05:11:52.939Z,0.50
2023-01-19T05:14:19.798Z,1.15
2023-01-19T05:16:46.833Z,1.27
2023-01-19T05:19:13.630Z,0.50
2023-01-19T05:21:40.539Z,1.08
2023-01-19T05:24:09.256Z,1.20
2023-01-19T05:26:36.176Z,0.95
2023-01-19T05:29:03.055Z,1.15
2023-01-19T05:31:29.976Z,1.08
2023-01-19T05:33:56.737Z,1.20
2023-01-19T05:36:23.514Z,1.65
2023-01-19T05:38:52.219Z,0.88
2023-01-19T05:41:23.600Z,1.55
2023-01-19T05:43:50.413Z,1.40
2023-01-19T05:46:17.282Z,0.95
2023-01-19T05:48:45.165Z,1.10
2023-01-19T05:51:12.019Z,1.85
2023-01-19T05:53:38.870Z,1.05
2023-01-19T05:56:10.988Z,1.65
2023-01-19T05:58:39.693Z,1.15
2023-01-19T06:01:08.597Z,1.15
2023-01-19T06:03:37.030Z,0.68
2023-01-19T06:06:04.474Z,2.13
2023-01-19T06:08:31.439Z,1.00
2023-01-19T06:10:58.230Z,1.83
2023-01-19T06:13:24.926Z,1.13
2023-01-19T06:15:58.499Z,0.57
2023-01-19T06:18:25.398Z,1.30
2023-01-19T06:20:58.507Z,1.35
2023-01-19T06:23:25.724Z,0.98
2023-01-19T06:25:52.792Z,1.98
2023-01-19T06:28:19.565Z,2.80
2023-01-19T06:30:48.785Z,1.27
2023-01-19T06:33:17.347Z,1.13
2023-01-19T06:35:44.476Z,1.27
2023-01-19T06:38:13.462Z,2.65
2023-01-19T06:40:40.708Z,1.80
2023-01-19T06:43:08.050Z,1.52
2023-01-19T06:45:35.343Z,2.30
2023-01-19T06:48:03.651Z,1.50
2023-01-19T06:50:32.030Z,1.48
2023-01-19T06:52:59.100Z,1.20
2023-01-19T06:55:27.917Z,1.35
2023-01-19T06:57:58.657Z,3.15
2023-01-19T07:00:26.288Z,3.17
2023-01-19T07:02:53.573Z,3.42
2023-01-19T07:05:22.130Z,2.35
2023-01-19T07:07:53.250Z,4.03
2023-01-19T07:10:20.070Z,3.53
2023-01-19T07:12:47.487Z,1.95
2023-01-19T07:15:15.485Z,2.03
2023-01-19T07:17:42.505Z,2.10
2023-01-19T07:20:11.273Z,3.28
2023-01-19T07:22:38.072Z,2.65
2023-01-19T07:25:07.013Z,2.42
2023-01-19T07:27:33.932Z,2.92
2023-01-19T07:30:01.271Z,1.73
2023-01-19T07:32:28.393Z,1.73
2023-01-19T07:34:55.418Z,3.72
2023-01-19T07:37:22.438Z,1.40
2023-01-19T07:39:49.273Z,2.58
2023-01-19T07:42:17.490Z,2.05
2023-01-19T07:44:44.346Z,4.00
2023-01-19T07:47:12.787Z,2.65
2023-01-19T07:49:39.865Z,1.85
2023-01-19T07:52:07.102Z,1.25
2023-01-19T07:54:33.954Z,3.25
2023-01-19T07:57:00.897Z,2.22
2023-01-19T07:59:30.364Z,2.85
2023-01-19T08:01:59.369Z,1.55
2023-01-19T08:04:27.157Z,2.63
2023-01-19T08:06:55.326Z,2.38
2023-01-19T08:09:22.206Z,2.75
2023-01-19T08:11:49.074Z,2.55
2023-01-19T08:14:15.878Z,1.83
2023-01-19T08:16:44.198Z,1.80
2023-01-19T08:19:11.396Z,2.00
2023-01-19T08:21:39.042Z,2.58
2023-01-19T08:24:06.528Z,3.55
2023-01-19T08:26:35.386Z,4.78
2023-01-19T08:29:05.015Z,3.20
2023-01-19T08:31:32.133Z,2.22
2023-01-19T08:34:00.431Z,3.50
2023-01-19T08:36:27.784Z,3.08
2023-01-19T08:38:54.760Z,4.43
2023-01-19T08:41:22.340Z,5.75
2023-01-19T08:43:49.279Z,2.97
2023-01-19T08:46:17.700Z,3.13
2023-01-19T08:48:45.719Z,2.95
2023-01-19T08:51:15.257Z,3.33
2023-01-19T08:53:42.894Z,4.15
2023-01-19T08:56:12.634Z,6.13
2023-01-19T08:58:40.534Z,2.70
2023-01-19T09:01:09.141Z,3.45
2023-01-19T09:03:36.510Z,3.67
2023-01-19T09:06:05.695Z,4.65
2023-01-19T09:08:34.060Z,2.45
2023-01-19T09:11:02.275Z,3.13
2023-01-19T09:13:29.092Z,4.05
2023-01-19T09:15:56.277Z,3.40
2023-01-19T09:18:23.654Z,5.18
2023-01-19T09:20:50.858Z,3.10
2023-01-19T09:23:20.171Z,3.67
2023-01-19T09:25:49.160Z,5.28
2023-01-19T09:28:17.727Z,3.67
2023-01-19T09:30:45.493Z,3.35
2023-01-19T09:33:15.275Z,5.28
2023-01-19T09:35:43.203Z,5.15
2023-01-19T09:38:10.559Z,4.05
2023-01-19T09:40:42.807Z,3.33
2023-01-19T09:43:19.051Z,4.68
2023-01-19T09:45:50.946Z,4.30
2023-01-19T09:48:36.217Z,4.10
2023-01-19T09:51:05.520Z,3.45
2023-01-19T09:53:47.639Z,3.95
2023-01-19T09:56:15.528Z,4.00
2023-01-19T09:58:43.773Z,4.45
2023-01-19T10:01:22.625Z,6.10
2023-01-19T10:03:57.462Z,4.53
2023-01-19T10:06:24.408Z,4.57
2023-01-19T10:09:02.942Z,5.63
2023-01-19T10:11:51.695Z,5.03
2023-01-19T10:14:28.398Z,3.58
2023-01-19T10:17:08.574Z,2.97
2023-01-19T10:19:40.359Z,2.10
2023-01-19T10:22:20.443Z,1.75
2023-01-19T10:24:53.463Z,2.97
2023-01-19T10:27:26.679Z,3.80
2023-01-19T10:29:55.093Z,4.03
2023-01-19T10:32:23.811Z,3.38
2023-01-19T10:34:51.451Z,3.70
2023-01-19T10:37:31.803Z,5.07
2023-01-19T10:40:13.308Z,4.18
2023-01-19T10:42:42.154Z,5.55
2023-01-19T10:45:16.291Z,7.78
2023-01-19T10:47:45.729Z,5.25
2023-01-19T10:50:27.865Z,5.05
2023-01-19T10:52:56.124Z,4.32
2023-01-19T10:55:29.617Z,4.13
2023-01-19T10:57:57.607Z,4.57
2023-01-19T11:00:37.677Z,3.97
2023-01-19T11:03:06.050Z,5.32
2023-01-19T11:05:36.038Z,5.03
2023-01-19T11:08:22.946Z,6.00
2023-01-19T11:10:53.708Z,4.78
2023-01-19T11:13:20.685Z,6.38
2023-01-19T11:15:54.505Z,4.60
2023-01-19T11:18:27.433Z,6.18
2023-01-19T11:20:56.749Z,4.43
2023-01-19T11:23:28.303Z,9.63
2023-01-19T11:25:58.475Z,6.25
2023-01-19T11:28:30.503Z,4.75
2023-01-19T11:31:00.563Z,5.43
2023-01-19T11:33:34.764Z,5.30
2023-01-19T11:36:07.317Z,8.88
2023-01-19T11:38:43.488Z,6.18
2023-01-19T11:41:18.198Z,6.45
2023-01-19T11:43:49.334Z,7.10
2023-01-19T11:46:18.751Z,9.63
2023-01-19T11:48:50.053Z,7.25
2023-01-19T11:51:20.168Z,9.82
2023-01-19T11:53:51.896Z,7.82
2023-01-19T11:56:23.203Z,11.00
2023-01-19T11:58:50.051Z,8.00
2023-01-19T12:01:24.598Z,9.60
2023-01-19T12:03:57.476Z,9.55
2023-01-19T12:06:30.290Z,9.60
2023-01-19T12:09:00.525Z,9.02
2023-01-19T12:11:32.105Z,8.95
2023-01-19T12:14:00.807Z,9.93
2023-01-19T12:16:34.725Z,9.57
2023-01-19T12:19:06.847Z,7.20
2023-01-19T12:21:34.048Z,8.60
2023-01-19T12:24:13.183Z,8.70
2023-01-19T12:26:48.121Z,9.55
2023-01-19T12:29:18.114Z,8.05
2023-01-19T12:32:06.528Z,9.30
2023-01-19T12:34:41.584Z,7.43
2023-01-19T12:37:32.807Z,8.45
2023-01-19T12:40:02.578Z,8.90
2023-01-19T12:42:30.089Z,8.68
2023-01-19T12:45:06.744Z,6.80
2023-01-19T12:47:34.872Z,7.10
2023-01-19T12:50:07.224Z,6.97
2023-01-19T12:52:41.181Z,6.68
2023-01-19T12:55:21.176Z,6.47
2023-01-19T12:57:56.619Z,7.35
2023-01-19T13:00:38.121Z,5.70
2023-01-19T13:03:45.823Z,4.82
2023-01-19T13:06:13.063Z,6.20
2023-01-19T13:09:00.874Z,5.85
2023-01-19T13:11:34.322Z,7.35
2023-01-19T13:14:33.660Z,8.35
2023-01-19T13:17:33.113Z,5.03
2023-01-19T13:20:18.873Z,4.72
2023-01-19T13:23:15.426Z,6.78
2023-01-19T13:25:48.620Z,5.47
2023-01-19T13:28:18.265Z,5.03
2023-01-19T13:31:01.187Z,5.70
2023-01-19T13:33:34.136Z,7.20
2023-01-19T13:36:01.021Z,3.92
2023-01-19T13:38:29.619Z,3.88
2023-01-19T13:41:03.659Z,4.45
2023-01-19T13:43:34.773Z,3.33
2023-01-19T13:46:03.721Z,5.90
2023-01-19T13:48:32.782Z,3.50
2023-01-19T13:51:02.874Z,3.83
2023-01-19T13:53:30.567Z,3.67
2023-01-19T13:56:23.377Z,1.35
2023-01-19T13:59:02.594Z,1.52
2023-01-19T14:01:31.268Z,2.33
2023-01-19T14:03:58.639Z,3.10
2023-01-19T14:06:34.124Z,2.22
2023-01-19T14:09:18.352Z,4.55
2023-01-19T14:12:05.189Z,1.30
2023-01-19T14:14:32.315Z,1.75
2023-01-19T14:16:59.634Z,1.13
2023-01-19T14:19:26.694Z,1.25
2023-01-19T14:22:02.033Z,3.50
2023-01-19T14:24:29.874Z,1.67
2023-01-19T14:27:18.581Z,1.55
2023-01-19T14:29:47.461Z,1.50
2023-01-19T14:32:17.156Z,1.55
2023-01-19T14:34:45.926Z,1.20
2023-01-19T14:37:22.427Z,0.93
2023-01-19T14:39:52.484Z,2.40
2023-01-19T14:42:27.592Z,3.03
2023-01-19T14:44:56.364Z,2.22
2023-01-19T14:47:30.885Z,2.28
2023-01-19T14:50:07.484Z,1.40
2023-01-19T14:52:38.705Z,1.55
2023-01-19T14:55:08.425Z,3.03
2023-01-19T14:57:37.826Z,1.13
2023-01-19T15:00:17.372Z,4.15
2023-01-19T15:02:44.729Z,0.30
2023-01-19T15:05:12.493Z,1.55
2023-01-19T15:07:42.077Z,1.50
2023-01-19T15:10:17.425Z,1.20
2023-01-19T15:12:45.690Z,1.27
2023-01-19T15:15:18.674Z,1.98
2023-01-19T15:17:45.783Z,1.92
2023-01-19T15:20:16.247Z,1.10
2023-01-19T15:22:43.623Z,1.38
2023-01-19T15:25:13.581Z,1.30
2023-01-19T15:27:40.483Z,1.70
2023-01-19T15:30:16.413Z,0.77
2023-01-19T15:32:44.392Z,2.25
2023-01-19T15:35:16.178Z,2.95
2023-01-19T15:37:43.094Z,3.20
2023-01-19T15:40:11.369Z,3.50
2023-01-19T15:42:38.514Z,3.40
2023-01-19T15:45:38.061Z,2.38
2023-01-19T15:48:08.282Z,3.75
2023-01-19T15:50:37.762Z,4.85
2023-01-19T15:53:04.541Z,6.80
2023-01-19T15:55:31.322Z,7.25
2023-01-19T15:58:01.605Z,8.23
2023-01-19T16:00:31.863Z,7.63
2023-01-19T16:02:59.461Z,7.82
2023-01-19T16:05:37.640Z,7.82
2023-01-19T16:08:09.333Z,8.90
2023-01-19T16:10:36.296Z,9.68
2023-01-19T16:13:04.178Z,7.78
2023-01-19T16:15:34.811Z,8.50
2023-01-19T16:18:01.737Z,6.80
2023-01-19T16:20:28.599Z,9.10
2023-01-19T16:22:58.597Z,7.22
2023-01-19T16:25:33.281Z,8.98
2023-01-19T16:27:59.999Z,7.13
2023-01-19T16:30:26.856Z,8.25
2023-01-19T16:32:55.059Z,9.90
2023-01-19T16:35:21.869Z,12.27
2023-01-19T16:37:51.295Z,8.88
2023-01-19T16:40:20.313Z,8.05
2023-01-19T16:42:47.383Z,8.63
2023-01-19T16:45:14.335Z,8.40
2023-01-19T16:47:41.134Z,7.57
2023-01-19T16:50:12.141Z,7.60
2023-01-19T16:52:39.403Z,7.90
2023-01-19T16:55:09.501Z,8.32
2023-01-19T16:57:38.860Z,11.75
2023-01-19T17:00:07.907Z,7.47
2023-01-19T17:02:35.032Z,8.77
2023-01-19T17:05:01.972Z,6.20
2023-01-19T17:07:30.117Z,8.68
2023-01-19T17:09:57.495Z,7.15
2023-01-19T17:12:24.295Z,7.45
2023-01-19T17:14:51.049Z,8.20
2023-01-19T17:17:17.954Z,8.02
2023-01-19T17:19:45.271Z,8.48
2023-01-19T17:22:13.026Z,5.85
2023-01-19T17:24:42.534Z,6.63
2023-01-19T17:27:09.692Z,6.88
2023-01-19T17:29:37.324Z,6.15
2023-01-19T17:32:04.518Z,7.70
2023-01-19T17:34:32.680Z,6.05
2023-01-19T17:37:03.175Z,9.13
2023-01-19T17:39:30.954Z,7.65
2023-01-19T17:41:59.252Z,7.65
2023-01-19T17:44:26.107Z,10.00
2023-01-19T17:46:53.148Z,8.30
2023-01-19T17:49:19.898Z,12.13
2023-01-19T17:51:51.919Z,12.63
2023-01-19T17:54:18.672Z,11.05
2023-01-19T17:56:45.625Z,14.15
2023-01-19T17:59:13.784Z,10.13
2023-01-19T18:01:42.921Z,12.40
2023-01-19T18:04:10.313Z,12.65
2023-01-19T18:06:37.772Z,12.38
2023-01-19T18:09:06.883Z,14.50
2023-01-19T18:11:34.098Z,11.68
2023-01-19T18:14:02.101Z,12.02
2023-01-19T18:16:31.406Z,10.75
2023-01-19T18:18:58.381Z,10.35
2023-01-19T18:21:28.283Z,12.43
2023-01-19T18:24:00.470Z,11.00
2023-01-19T18:26:27.245Z,12.38
2023-01-19T18:28:57.653Z,11.02
2023-01-19T18:31:26.503Z,11.63
2023-01-19T18:33:55.127Z,13.60
2023-01-19T18:36:22.307Z,11.02
2023-01-19T18:38:49.970Z,12.65
2023-01-19T18:41:18.555Z,14.30
2023-01-19T18:43:46.640Z,10.82
2023-01-19T18:46:14.754Z,12.02
2023-01-19T18:48:41.775Z,12.55
2023-01-19T18:51:11.786Z,11.15
2023-01-19T18:53:39.161Z,13.95
2023-01-19T18:56:06.987Z,10.90
2023-01-19T18:58:38.688Z,15.13
2023-01-19T19:01:20.613Z,9.52
2023-01-19T19:03:47.832Z,11.90
2023-01-19T19:06:19.305Z,11.05
2023-01-19T19:08:46.728Z,10.25
2023-01-19T19:11:14.277Z,10.27
2023-01-19T19:13:41.442Z,10.77
2023-01-19T19:16:10.247Z,12.85
2023-01-19T19:18:38.404Z,12.60
2023-01-19T19:21:06.162Z,11.20
2023-01-19T19:23:34.436Z,13.10
2023-01-19T19:26:02.649Z,13.73
2023-01-19T19:28:29.374Z,11.68
2023-01-19T19:31:03.224Z,9.38
2023-01-19T19:33:30.153Z,15.15
2023-01-19T19:35:57.285Z,13.23
2023-01-19T19:38:24.071Z,12.43
2023-01-19T19:40:54.820Z,13.43
2023-01-19T19:43:22.162Z,12.50
2023-01-19T19:45:57.210Z,10.00
2023-01-19T19:48:24.523Z,9.82
2023-01-19T19:50:51.445Z,12.00
2023-01-19T19:53:18.232Z,11.82
2023-01-19T19:55:54.889Z,10.85
2023-01-19T19:58:23.070Z,11.60
2023-01-19T20:00:50.366Z,14.82
2023-01-19T20:03:17.402Z,13.52
2023-01-19T20:05:44.436Z,11.65
2023-01-19T20:08:11.267Z,13.43
2023-01-19T20:10:38.441Z,11.75
2023-01-19T20:13:07.582Z,13.27
2023-01-19T20:15:38.531Z,9.60
2023-01-19T20:18:05.423Z,14.63
2023-01-19T20:20:32.960Z,14.25
2023-01-19T20:23:01.400Z,9.90
2023-01-19T20:25:29.807Z,13.77
2023-01-19T20:27:59.212Z,11.50
2023-01-19T20:30:27.147Z,16.30
2023-01-19T20:32:55.353Z,13.07
2023-01-19T20:35:22.215Z,16.08
2023-01-19T20:37:48.937Z,13.30
2023-01-19T20:40:16.135Z,14.07
2023-01-19T20:42:44.422Z,12.88
2023-01-19T20:45:11.819Z,16.95
2023-01-19T20:47:38.887Z,16.02
2023-01-19T20:50:08.944Z,15.52
2023-01-19T20:52:36.101Z,15.60
2023-01-19T20:55:03.266Z,16.40
2023-01-19T20:57:30.691Z,13.90
2023-01-19T20:59:57.571Z,16.00
2023-01-19T21:02:24.655Z,14.35
2023-01-19T21:04:54.672Z,13.43
2023-01-19T21:07:23.036Z,12.88
2023-01-19T21:09:49.815Z,14.52
2023-01-19T21:12:16.946Z,15.07
2023-01-19T21:14:45.845Z,15.07
2023-01-19T21:17:12.811Z,16.77
2023-01-19T21:19:39.631Z,14.23
2023-01-19T21:22:06.708Z,14.43
2023-01-19T21:24:34.875Z,14.25
2023-01-19T21:27:02.131Z,12.35
2023-01-19T21:29:29.195Z,12.05
2023-01-19T21:32:01.821Z,14.60
2023-01-19T21:34:28.595Z,14.23
2023-01-19T21:36:55.532Z,14.43
2023-01-19T21:39:22.475Z,16.63
2023-01-19T21:41:50.784Z,13.60
2023-01-19T21:44:17.709Z,16.30
2023-01-19T21:46:45.748Z,11.25
2023-01-19T21:49:18.256Z,13.63
2023-01-19T21:51:47.911Z,14.90
2023-01-19T21:54:14.826Z,17.20
2023-01-19T21:56:43.314Z,13.82
2023-01-19T21:59:13.044Z,14.10
2023-01-19T22:01:40.072Z,14.50
2023-01-19T22:04:06.861Z,14.10
2023-01-19T22:06:34.173Z,15.60
2023-01-19T22:09:38.333Z,13.93
2023-01-19T22:12:05.974Z,11.75
2023-01-19T22:14:34.035Z,13.38
2023-01-19T22:17:00.977Z,13.68
2023-01-19T22:19:27.995Z,13.80
2023-01-19T22:21:55.504Z,12.77
2023-01-19T22:24:22.244Z,20.85
2023-01-19T22:26:49.471Z,13.50
2023-01-19T22:29:16.217Z,16.67
2023-01-19T22:31:45.791Z,14.82
2023-01-19T22:34:13.607Z,15.88
2023-01-19T22:36:40.447Z,14.45
2023-01-19T22:39:09.353Z,14.63
2023-01-19T22:41:38.154Z,14.93
2023-01-19T22:44:07.383Z,17.77
2023-01-19T22:46:36.517Z,17.27
2023-01-19T22:49:07.512Z,20.88
2023-01-19T22:51:36.666Z,15.52
2023-01-19T22:54:04.247Z,13.40
2023-01-19T22:56:34.279Z,15.40
2023-01-19T22:59:01.547Z,10.25
2023-01-19T23:01:30.594Z,11.65
2023-01-19T23:03:57.587Z,9.63
2023-01-19T23:06:28.343Z,7.85
2023-01-19T23:08:57.060Z,6.57
2023-01-19T23:11:26.286Z,6.57
2023-01-19T23:13:53.364Z,5.38
2023-01-19T23:16:20.373Z,3.80
2023-01-19T23:18:48.080Z,4.03
2023-01-19T23:21:16.643Z,5.13
2023-01-19T23:23:45.796Z,4.07
2023-01-19T23:26:14.338Z,3.35
2023-01-19T23:28:41.943Z,3.38
2023-01-19T23:31:17.680Z,2.80
2023-01-19T23:33:45.253Z,3.25
2023-01-19T23:36:12.720Z,2.35
2023-01-19T23:38:39.599Z,3.15
2023-01-19T23:41:08.013Z,1.92
2023-01-19T23:43:35.118Z,2.00
2023-01-19T23:46:06.808Z,3.00
2023-01-19T23:48:33.668Z,2.83
2023-01-19T23:51:05.666Z,3.75
2023-01-19T23:55:59.080Z,8.10
2023-01-19T23:58:28.592Z,5.38
